sensor_id;sensor_type;location;lat;lon;timestamp;pressure;altitude;pressure_sealevel;temperature;humidity
64192;BME280;50497;50.720;-2.084;2022-12-18T00:00:46;102216.75;;;-3.12;100.00
64192;BME280;50497;50.720;-2.084;2022-12-18T00:03:14;102218.31;;;-3.18;100.00
64192;BME280;50497;50.720;-2.084;2022-12-18T00:05:46;102217.72;;;-3.09;100.00
64192;BME280;50497;50.720;-2.084;2022-12-18T00:08:11;102184.50;;;-3.11;100.00
64192;BME280;50497;50.720;-2.084;2022-12-18T00:10:37;102195.56;;;-2.93;100.00
64192;BME280;50497;50.720;-2.084;2022-12-18T00:13:02;102191.06;;;-2.97;100.00
64192;BME280;50497;50.720;-2.084;2022-12-18T00:15:27;102179.38;;;-3.08;100.00
64192;BME280;50497;50.720;-2.084;2022-12-18T00:17:53;102174.97;;;-3.09;100.00
64192;BME280;50497;50.720;-2.084;2022-12-18T00:20:18;102188.47;;;-2.97;100.00
64192;BME280;50497;50.720;-2.084;2022-12-18T00:22:51;102188.16;;;-2.78;100.00
64192;BME280;50497;50.720;-2.084;2022-12-18T00:25:16;102184.53;;;-2.83;100.00
64192;BME280;50497;50.720;-2.084;2022-12-18T00:27:42;102153.75;;;-2.90;100.00
64192;BME280;50497;50.720;-2.084;2022-12-18T00:30:08;102167.09;;;-2.81;100.00
64192;BME280;50497;50.720;-2.084;2022-12-18T00:32:33;102165.50;;;-2.77;100.00
64192;BME280;50497;50.720;-2.084;2022-12-18T00:34:58;102151.59;;;-2.74;100.00
64192;BME280;50497;50.720;-2.084;2022-12-18T00:37:24;102127.72;;;-2.85;100.00
64192;BME280;50497;50.720;-2.084;2022-12-18T00:39:49;102133.59;;;-2.64;100.00
64192;BME280;50497;50.720;-2.084;2022-12-18T00:42:15;102132.84;;;-2.58;100.00
64192;BME280;50497;50.720;-2.084;2022-12-18T00:44:59;102124.06;;;-2.60;100.00
64192;BME280;50497;50.720;-2.084;2022-12-18T00:47:25;102110.38;;;-2.18;100.00
64192;BME280;50497;50.720;-2.084;2022-12-18T00:49:50;102118.72;;;-1.99;100.00
64192;BME280;50497;50.720;-2.084;2022-12-18T00:52:15;102111.00;;;-1.95;100.00
64192;BME280;50497;50.720;-2.084;2022-12-18T00:54:41;102106.03;;;-1.49;100.00
64192;BME280;50497;50.720;-2.084;2022-12-18T00:57:06;102108.28;;;-1.63;100.00
64192;BME280;50497;50.720;-2.084;2022-12-18T00:59:31;102090.47;;;-1.76;100.00
64192;BME280;50497;50.720;-2.084;2022-12-18T01:01:57;102118.28;;;-1.48;100.00
64192;BME280;50497;50.720;-2.084;2022-12-18T01:04:22;102101.97;;;-1.35;100.00
64192;BME280;50497;50.720;-2.084;2022-12-18T01:06:48;102129.44;;;-1.20;100.00
64192;BME280;50497;50.720;-2.084;2022-12-18T01:09:13;102121.34;;;-1.30;100.00
64192;BME280;50497;50.720;-2.084;2022-12-18T01:11:39;102135.97;;;-1.04;100.00
64192;BME280;50497;50.720;-2.084;2022-12-18T01:14:05;102138.66;;;-1.00;100.00
64192;BME280;50497;50.720;-2.084;2022-12-18T01:16:31;102120.22;;;-1.03;100.00
64192;BME280;50497;50.720;-2.084;2022-12-18T01:18:56;102123.47;;;-1.13;100.00
64192;BME280;50497;50.720;-2.084;2022-12-18T01:21:23;102139.34;;;-1.08;100.00
64192;BME280;50497;50.720;-2.084;2022-12-18T01:23:53;102121.41;;;-1.26;100.00
64192;BME280;50497;50.720;-2.084;2022-12-18T01:26:19;102134.78;;;-1.17;100.00
64192;BME280;50497;50.720;-2.084;2022-12-18T01:28:45;102121.53;;;-1.22;100.00
64192;BME280;50497;50.720;-2.084;2022-12-18T01:31:17;102128.66;;;-1.18;100.00
64192;BME280;50497;50.720;-2.084;2022-12-18T01:33:43;102142.47;;;-1.25;100.00
64192;BME280;50497;50.720;-2.084;2022-12-18T01:36:15;102144.13;;;-1.28;100.00
64192;BME280;50497;50.720;-2.084;2022-12-18T01:38:40;102146.16;;;-1.17;100.00
64192;BME280;50497;50.720;-2.084;2022-12-18T01:41:06;102141.75;;;-1.19;100.00
64192;BME280;50497;50.720;-2.084;2022-12-18T01:43:46;102134.63;;;-1.23;100.00
64192;BME280;50497;50.720;-2.084;2022-12-18T01:46:12;102140.03;;;-1.17;100.00
64192;BME280;50497;50.720;-2.084;2022-12-18T01:48:38;102113.00;;;-1.12;100.00
64192;BME280;50497;50.720;-2.084;2022-12-18T01:51:06;102105.06;;;-1.15;100.00
64192;BME280;50497;50.720;-2.084;2022-12-18T01:53:32;102097.13;;;-1.18;100.00
64192;BME280;50497;50.720;-2.084;2022-12-18T01:55:58;102109.75;;;-1.01;100.00
64192;BME280;50497;50.720;-2.084;2022-12-18T01:58:38;102089.81;;;-0.91;100.00
64192;BME280;50497;50.720;-2.084;2022-12-18T02:01:05;102099.59;;;-0.86;100.00
64192;BME280;50497;50.720;-2.084;2022-12-18T02:03:31;102088.22;;;-0.83;100.00
64192;BME280;50497;50.720;-2.084;2022-12-18T02:06:07;102092.66;;;-0.82;100.00
64192;BME280;50497;50.720;-2.084;2022-12-18T02:14:04;102099.47;;;-0.49;100.00
64192;BME280;50497;50.720;-2.084;2022-12-18T02:19:06;102078.59;;;-0.40;100.00
64192;BME280;50497;50.720;-2.084;2022-12-18T02:22:15;102089.19;;;-0.35;100.00
64192;BME280;50497;50.720;-2.084;2022-12-18T02:27:07;102096.06;;;0.04;100.00
64192;BME280;50497;50.720;-2.084;2022-12-18T02:32:17;102086.53;;;0.10;100.00
64192;BME280;50497;50.720;-2.084;2022-12-18T02:34:46;102090.88;;;0.07;100.00
64192;BME280;50497;50.720;-2.084;2022-12-18T02:37:14;102074.69;;;-0.15;100.00
64192;BME280;50497;50.720;-2.084;2022-12-18T02:39:43;102071.06;;;0.29;100.00
64192;BME280;50497;50.720;-2.084;2022-12-18T02:42:10;102077.19;;;0.29;100.00
64192;BME280;50497;50.720;-2.084;2022-12-18T02:44:51;102078.81;;;0.21;100.00
64192;BME280;50497;50.720;-2.084;2022-12-18T02:47:18;102071.81;;;0.23;100.00
64192;BME280;50497;50.720;-2.084;2022-12-18T02:49:47;102066.44;;;0.15;100.00
64192;BME280;50497;50.720;-2.084;2022-12-18T02:52:56;102071.78;;;0.18;100.00
64192;BME280;50497;50.720;-2.084;2022-12-18T03:00:39;102078.06;;;0.30;100.00
64192;BME280;50497;50.720;-2.084;2022-12-18T03:03:29;102058.66;;;0.22;100.00
64192;BME280;50497;50.720;-2.084;2022-12-18T03:08:48;102067.09;;;0.55;100.00
64192;BME280;50497;50.720;-2.084;2022-12-18T03:11:15;102061.28;;;0.78;100.00
64192;BME280;50497;50.720;-2.084;2022-12-18T03:13:48;102063.22;;;0.91;100.00
64192;BME280;50497;50.720;-2.084;2022-12-18T03:16:25;102040.94;;;0.69;100.00
64192;BME280;50497;50.720;-2.084;2022-12-18T03:18:55;102033.00;;;0.68;100.00
64192;BME280;50497;50.720;-2.084;2022-12-18T03:21:26;102047.19;;;0.78;100.00
64192;BME280;50497;50.720;-2.084;2022-12-18T03:23:53;102048.53;;;1.10;100.00
64192;BME280;50497;50.720;-2.084;2022-12-18T03:26:23;102040.03;;;1.35;100.00
64192;BME280;50497;50.720;-2.084;2022-12-18T03:28:57;102030.28;;;1.29;100.00
64192;BME280;50497;50.720;-2.084;2022-12-18T03:31:27;102032.88;;;1.26;100.00
64192;BME280;50497;50.720;-2.084;2022-12-18T03:33:56;102027.59;;;1.21;100.00
64192;BME280;50497;50.720;-2.084;2022-12-18T03:36:23;102031.19;;;1.33;100.00
64192;BME280;50497;50.720;-2.084;2022-12-18T03:38:49;102040.84;;;1.31;100.00
64192;BME280;50497;50.720;-2.084;2022-12-18T03:41:19;102025.13;;;1.37;100.00
64192;BME280;50497;50.720;-2.084;2022-12-18T03:46:33;102004.78;;;1.25;100.00
64192;BME280;50497;50.720;-2.084;2022-12-18T03:52:11;102035.63;;;1.34;100.00
64192;BME280;50497;50.720;-2.084;2022-12-18T03:54:39;102002.88;;;1.13;100.00
64192;BME280;50497;50.720;-2.084;2022-12-18T03:57:10;102017.91;;;1.22;100.00
64192;BME280;50497;50.720;-2.084;2022-12-18T03:59:37;102011.72;;;1.18;100.00
64192;BME280;50497;50.720;-2.084;2022-12-18T04:02:04;101995.94;;;1.21;100.00
64192;BME280;50497;50.720;-2.084;2022-12-18T04:04:34;102008.31;;;1.28;100.00
64192;BME280;50497;50.720;-2.084;2022-12-18T04:07:00;101989.94;;;1.35;100.00
64192;BME280;50497;50.720;-2.084;2022-12-18T04:09:27;101984.00;;;1.57;100.00
64192;BME280;50497;50.720;-2.084;2022-12-18T04:11:53;101975.06;;;1.44;100.00
64192;BME280;50497;50.720;-2.084;2022-12-18T04:14:19;101980.31;;;1.38;100.00
64192;BME280;50497;50.720;-2.084;2022-12-18T04:16:45;101968.09;;;1.46;100.00
64192;BME280;50497;50.720;-2.084;2022-12-18T04:19:11;101959.34;;;1.52;100.00
64192;BME280;50497;50.720;-2.084;2022-12-18T04:21:36;101948.59;;;1.34;100.00
64192;BME280;50497;50.720;-2.084;2022-12-18T04:24:02;101945.16;;;1.42;100.00
64192;BME280;50497;50.720;-2.084;2022-12-18T04:26:27;101955.78;;;1.48;100.00
64192;BME280;50497;50.720;-2.084;2022-12-18T04:28:53;101948.88;;;1.61;100.00
64192;BME280;50497;50.720;-2.084;2022-12-18T04:31:18;101941.72;;;1.48;100.00
64192;BME280;50497;50.720;-2.084;2022-12-18T04:33:44;101910.09;;;1.51;100.00
64192;BME280;50497;50.720;-2.084;2022-12-18T04:36:09;101915.38;;;1.54;100.00
64192;BME280;50497;50.720;-2.084;2022-12-18T04:38:35;101927.97;;;1.84;100.00
64192;BME280;50497;50.720;-2.084;2022-12-18T04:41:00;101920.13;;;1.95;100.00
64192;BME280;50497;50.720;-2.084;2022-12-18T04:43:26;101914.78;;;1.84;100.00
64192;BME280;50497;50.720;-2.084;2022-12-18T04:45:51;101907.72;;;1.83;100.00
64192;BME280;50497;50.720;-2.084;2022-12-18T04:48:17;101912.28;;;2.06;100.00
64192;BME280;50497;50.720;-2.084;2022-12-18T04:50:42;101902.56;;;2.03;100.00
64192;BME280;50497;50.720;-2.084;2022-12-18T04:53:08;101902.59;;;2.07;100.00
64192;BME280;50497;50.720;-2.084;2022-12-18T04:55:33;101899.88;;;1.94;100.00
64192;BME280;50497;50.720;-2.084;2022-12-18T04:57:58;101899.75;;;1.77;100.00
64192;BME280;50497;50.720;-2.084;2022-12-18T05:00:24;101907.91;;;2.10;100.00
64192;BME280;50497;50.720;-2.084;2022-12-18T05:02:49;101904.50;;;2.29;100.00
64192;BME280;50497;50.720;-2.084;2022-12-18T05:05:15;101894.91;;;2.48;100.00
64192;BME280;50497;50.720;-2.084;2022-12-18T05:07:40;101869.25;;;2.24;100.00
64192;BME280;50497;50.720;-2.084;2022-12-18T05:10:06;101862.25;;;2.29;100.00
64192;BME280;50497;50.720;-2.084;2022-12-18T05:12:32;101861.41;;;2.38;100.00
64192;BME280;50497;50.720;-2.084;2022-12-18T05:14:57;101854.38;;;2.42;100.00
64192;BME280;50497;50.720;-2.084;2022-12-18T05:17:22;101850.78;;;2.30;100.00
64192;BME280;50497;50.720;-2.084;2022-12-18T05:19:48;101853.44;;;2.30;100.00
64192;BME280;50497;50.720;-2.084;2022-12-18T05:22:14;101849.03;;;2.25;100.00
64192;BME280;50497;50.720;-2.084;2022-12-18T05:24:39;101836.66;;;2.20;100.00
64192;BME280;50497;50.720;-2.084;2022-12-18T05:27:04;101829.69;;;2.33;100.00
64192;BME280;50497;50.720;-2.084;2022-12-18T05:29:30;101807.59;;;2.13;100.00
64192;BME280;50497;50.720;-2.084;2022-12-18T05:31:55;101820.03;;;2.38;100.00
64192;BME280;50497;50.720;-2.084;2022-12-18T05:34:21;101804.97;;;2.20;100.00
64192;BME280;50497;50.720;-2.084;2022-12-18T05:36:46;101794.41;;;2.11;100.00
64192;BME280;50497;50.720;-2.084;2022-12-18T05:39:11;101806.69;;;2.12;100.00
64192;BME280;50497;50.720;-2.084;2022-12-18T05:41:37;101803.13;;;1.99;100.00
64192;BME280;50497;50.720;-2.084;2022-12-18T05:44:03;101785.47;;;1.88;100.00
64192;BME280;50497;50.720;-2.084;2022-12-18T05:46:28;101808.44;;;2.06;100.00
64192;BME280;50497;50.720;-2.084;2022-12-18T05:48:54;101792.53;;;1.92;100.00
64192;BME280;50497;50.720;-2.084;2022-12-18T05:51:21;101801.41;;;2.03;100.00
64192;BME280;50497;50.720;-2.084;2022-12-18T05:53:51;101802.34;;;2.25;100.00
64192;BME280;50497;50.720;-2.084;2022-12-18T05:56:20;101803.25;;;2.30;100.00
64192;BME280;50497;50.720;-2.084;2022-12-18T05:58:46;101798.84;;;2.26;100.00
64192;BME280;50497;50.720;-2.084;2022-12-18T06:01:21;101780.34;;;2.23;100.00
64192;BME280;50497;50.720;-2.084;2022-12-18T06:03:51;101776.81;;;2.16;100.00
64192;BME280;50497;50.720;-2.084;2022-12-18T06:06:19;101784.72;;;2.15;100.00
64192;BME280;50497;50.720;-2.084;2022-12-18T06:08:44;101789.22;;;2.34;100.00
64192;BME280;50497;50.720;-2.084;2022-12-18T06:11:10;101786.56;;;2.36;100.00
64192;BME280;50497;50.720;-2.084;2022-12-18T06:13:37;101782.13;;;2.30;100.00
64192;BME280;50497;50.720;-2.084;2022-12-18T06:16:04;101781.28;;;2.36;100.00
64192;BME280;50497;50.720;-2.084;2022-12-18T06:18:30;101776.91;;;2.39;100.00
64192;BME280;50497;50.720;-2.084;2022-12-18T06:20:56;101776.88;;;2.36;100.00
64192;BME280;50497;50.720;-2.084;2022-12-18T06:23:22;101773.34;;;2.28;100.00
64192;BME280;50497;50.720;-2.084;2022-12-18T06:25:48;101784.81;;;2.47;100.00
64192;BME280;50497;50.720;-2.084;2022-12-18T06:28:13;101772.47;;;2.35;100.00
64192;BME280;50497;50.720;-2.084;2022-12-18T06:30:39;101781.28;;;2.31;100.00
64192;BME280;50497;50.720;-2.084;2022-12-18T06:33:04;101808.56;;;2.36;100.00
64192;BME280;50497;50.720;-2.084;2022-12-18T06:35:31;101812.09;;;2.38;100.00
64192;BME280;50497;50.720;-2.084;2022-12-18T06:37:57;101814.75;;;2.38;100.00
64192;BME280;50497;50.720;-2.084;2022-12-18T06:40:22;101804.16;;;2.38;100.00
64192;BME280;50497;50.720;-2.084;2022-12-18T06:42:48;101807.69;;;2.34;100.00
64192;BME280;50497;50.720;-2.084;2022-12-18T06:45:15;101818.25;;;2.34;100.00
64192;BME280;50497;50.720;-2.084;2022-12-18T06:47:40;101802.34;;;2.22;100.00
64192;BME280;50497;50.720;-2.084;2022-12-18T06:50:06;101790.03;;;2.29;100.00
64192;BME280;50497;50.720;-2.084;2022-12-18T06:52:32;101797.06;;;2.22;100.00
64192;BME280;50497;50.720;-2.084;2022-12-18T06:54:58;101779.47;;;2.18;100.00
64192;BME280;50497;50.720;-2.084;2022-12-18T06:57:23;101796.22;;;2.35;100.00
64192;BME280;50497;50.720;-2.084;2022-12-18T06:59:49;101799.75;;;2.39;100.00
64192;BME280;50497;50.720;-2.084;2022-12-18T07:02:14;101798.91;;;2.40;100.00
64192;BME280;50497;50.720;-2.084;2022-12-18T07:04:40;101786.50;;;2.22;100.00
64192;BME280;50497;50.720;-2.084;2022-12-18T07:07:05;101765.38;;;2.22;100.00
64192;BME280;50497;50.720;-2.084;2022-12-18T07:09:30;101773.28;;;2.14;100.00
64192;BME280;50497;50.720;-2.084;2022-12-18T07:11:56;101776.78;;;2.12;100.00
64192;BME280;50497;50.720;-2.084;2022-12-18T07:14:21;101786.50;;;2.14;100.00
64192;BME280;50497;50.720;-2.084;2022-12-18T07:16:47;101756.50;;;2.01;100.00
64192;BME280;50497;50.720;-2.084;2022-12-18T07:19:16;101779.47;;;2.24;100.00
64192;BME280;50497;50.720;-2.084;2022-12-18T07:21:41;101780.34;;;2.21;100.00
64192;BME280;50497;50.720;-2.084;2022-12-18T07:24:07;101790.03;;;2.27;100.00
64192;BME280;50497;50.720;-2.084;2022-12-18T07:26:32;101769.81;;;2.35;100.00
64192;BME280;50497;50.720;-2.084;2022-12-18T07:28:58;101770.72;;;2.34;100.00
64192;BME280;50497;50.720;-2.084;2022-12-18T07:31:24;101779.50;;;2.30;100.00
64192;BME280;50497;50.720;-2.084;2022-12-18T07:33:50;101785.66;;;2.28;100.00
64192;BME280;50497;50.720;-2.084;2022-12-18T07:36:16;101783.88;;;2.27;100.00
64192;BME280;50497;50.720;-2.084;2022-12-18T07:38:42;101795.31;;;2.27;100.00
64192;BME280;50497;50.720;-2.084;2022-12-18T07:41:11;101784.72;;;2.15;100.00
64192;BME280;50497;50.720;-2.084;2022-12-18T07:43:37;101793.50;;;2.14;100.00
64192;BME280;50497;50.720;-2.084;2022-12-18T07:46:03;101770.56;;;1.94;100.00
64192;BME280;50497;50.720;-2.084;2022-12-18T07:48:29;101789.94;;;2.06;100.00
64192;BME280;50497;50.720;-2.084;2022-12-18T07:51:02;101773.22;;;1.94;100.00
64192;BME280;50497;50.720;-2.084;2022-12-18T07:53:29;101783.75;;;1.96;100.00
64192;BME280;50497;50.720;-2.084;2022-12-18T07:56:08;101782.84;;;1.92;100.00
64192;BME280;50497;50.720;-2.084;2022-12-18T07:58:34;101771.34;;;1.81;100.00
64192;BME280;50497;50.720;-2.084;2022-12-18T08:01:08;101767.81;;;1.76;100.00
64192;BME280;50497;50.720;-2.084;2022-12-18T08:03:34;101784.53;;;1.81;100.00
64192;BME280;50497;50.720;-2.084;2022-12-18T08:06:01;101779.28;;;1.79;100.00
64192;BME280;50497;50.720;-2.084;2022-12-18T08:08:28;101797.75;;;1.82;100.00
64192;BME280;50497;50.720;-2.084;2022-12-18T08:10:54;101799.53;;;1.83;100.00
64192;BME280;50497;50.720;-2.084;2022-12-18T08:13:20;101803.94;;;1.86;100.00
64192;BME280;50497;50.720;-2.084;2022-12-18T08:15:46;101805.69;;;1.87;100.00
64192;BME280;50497;50.720;-2.084;2022-12-18T08:18:11;101791.63;;;1.85;100.00
64192;BME280;50497;50.720;-2.084;2022-12-18T08:20:55;101811.88;;;1.86;100.00
64192;BME280;50497;50.720;-2.084;2022-12-18T08:23:24;101795.13;;;1.85;100.00
64192;BME280;50497;50.720;-2.084;2022-12-18T08:25:50;101791.69;;;2.00;100.00
64192;BME280;50497;50.720;-2.084;2022-12-18T08:28:16;101801.34;;;1.97;100.00
64192;BME280;50497;50.720;-2.084;2022-12-18T08:30:42;101796.97;;;2.00;100.00
64192;BME280;50497;50.720;-2.084;2022-12-18T08:33:08;101795.19;;;1.96;100.00
64192;BME280;50497;50.720;-2.084;2022-12-18T08:35:36;101775.81;;;1.91;100.00
64192;BME280;50497;50.720;-2.084;2022-12-18T08:38:02;101793.47;;;2.00;100.00
64192;BME280;50497;50.720;-2.084;2022-12-18T08:40:28;101786.41;;;1.94;100.00
64192;BME280;50497;50.720;-2.084;2022-12-18T08:42:54;101790.88;;;2.08;100.00
64192;BME280;50497;50.720;-2.084;2022-12-18T08:45:38;101792.63;;;2.10;100.00
64192;BME280;50497;50.720;-2.084;2022-12-18T08:48:03;101774.09;;;1.99;100.00
64192;BME280;50497;50.720;-2.084;2022-12-18T08:50:29;101788.19;;;2.09;100.00
64192;BME280;50497;50.720;-2.084;2022-12-18T08:52:54;101760.97;;;2.16;100.00
64192;BME280;50497;50.720;-2.084;2022-12-18T08:55:20;101764.53;;;2.26;100.00
64192;BME280;50497;50.720;-2.084;2022-12-18T08:57:48;101791.84;;;2.44;100.00
64192;BME280;50497;50.720;-2.084;2022-12-18T09:00:16;101789.25;;;2.48;100.00
64192;BME280;50497;50.720;-2.084;2022-12-18T09:02:41;101784.81;;;2.49;100.00
64192;BME280;50497;50.720;-2.084;2022-12-18T09:05:07;101799.84;;;2.59;100.00
64192;BME280;50497;50.720;-2.084;2022-12-18T09:07:32;101809.53;;;2.60;100.00
64192;BME280;50497;50.720;-2.084;2022-12-18T09:09:59;101808.63;;;2.55;100.00
64192;BME280;50497;50.720;-2.084;2022-12-18T09:12:28;101799.81;;;2.48;100.00
64192;BME280;50497;50.720;-2.084;2022-12-18T09:14:53;101800.69;;;2.43;100.00
64192;BME280;50497;50.720;-2.084;2022-12-18T09:17:19;101805.94;;;2.39;100.00
64192;BME280;50497;50.720;-2.084;2022-12-18T09:19:44;101783.03;;;2.28;100.00
64192;BME280;50497;50.720;-2.084;2022-12-18T09:22:10;101798.00;;;2.35;100.00
64192;BME280;50497;50.720;-2.084;2022-12-18T09:24:35;101787.41;;;2.22;100.00
64192;BME280;50497;50.720;-2.084;2022-12-18T09:27:01;101793.56;;;2.31;100.00
64192;BME280;50497;50.720;-2.084;2022-12-18T09:29:26;101787.44;;;2.33;100.00
64192;BME280;50497;50.720;-2.084;2022-12-18T09:31:52;101786.56;;;2.44;100.00
64192;BME280;50497;50.720;-2.084;2022-12-18T09:34:17;101763.66;;;2.33;100.00
64192;BME280;50497;50.720;-2.084;2022-12-18T09:36:43;101765.44;;;2.40;100.00
64192;BME280;50497;50.720;-2.084;2022-12-18T09:39:08;101784.84;;;2.53;100.00
64192;BME280;50497;50.720;-2.084;2022-12-18T09:41:51;101765.50;;;2.56;100.00
64192;BME280;50497;50.720;-2.084;2022-12-18T09:44:41;101783.13;;;2.66;100.00
64192;BME280;50497;50.720;-2.084;2022-12-18T09:47:17;101765.50;;;2.57;100.00
64192;BME280;50497;50.720;-2.084;2022-12-18T09:49:54;101771.66;;;2.61;100.00
64192;BME280;50497;50.720;-2.084;2022-12-18T09:52:36;101778.72;;;2.68;100.00
64192;BME280;50497;50.720;-2.084;2022-12-18T09:58:07;101759.31;;;2.60;100.00
64192;BME280;50497;50.720;-2.084;2022-12-18T10:00:39;101763.75;;;2.81;100.00
64192;BME280;50497;50.720;-2.084;2022-12-18T10:03:13;101770.81;;;2.87;100.00
64192;BME280;50497;50.720;-2.084;2022-12-18T10:08:34;101760.25;;;2.93;100.00
64192;BME280;50497;50.720;-2.084;2022-12-18T10:22:34;101749.69;;;3.21;100.00
64192;BME280;50497;50.720;-2.084;2022-12-18T10:28:14;101736.44;;;3.30;100.00
64192;BME280;50497;50.720;-2.084;2022-12-18T10:30:43;101732.91;;;3.26;100.00
64192;BME280;50497;50.720;-2.084;2022-12-18T10:33:13;101739.03;;;3.48;100.00
64192;BME280;50497;50.720;-2.084;2022-12-18T10:35:41;101724.06;;;3.43;100.00
64192;BME280;50497;50.720;-2.084;2022-12-18T10:38:22;101720.50;;;3.58;100.00
64192;BME280;50497;50.720;-2.084;2022-12-18T10:40:49;101732.81;;;3.68;100.00
64192;BME280;50497;50.720;-2.084;2022-12-18T10:43:23;101735.53;;;3.53;100.00
64192;BME280;50497;50.720;-2.084;2022-12-18T10:51:07;101732.69;;;4.05;100.00
64192;BME280;50497;50.720;-2.084;2022-12-18T10:53:35;101730.88;;;4.15;100.00
64192;BME280;50497;50.720;-2.084;2022-12-18T10:56:03;101714.97;;;4.18;100.00
64192;BME280;50497;50.720;-2.084;2022-12-18T11:03:43;101706.78;;;4.58;100.00
64192;BME280;50497;50.720;-2.084;2022-12-18T11:08:41;101730.47;;;4.78;100.00
64192;BME280;50497;50.720;-2.084;2022-12-18T11:11:21;101765.69;;;5.00;100.00
64192;BME280;50497;50.720;-2.084;2022-12-18T11:14:01;101903.50;;;5.17;100.00
64192;BME280;50497;50.720;-2.084;2022-12-18T11:16:29;101894.59;;;5.26;100.00
64192;BME280;50497;50.720;-2.084;2022-12-18T11:19:11;101904.31;;;5.31;100.00
64192;BME280;50497;50.720;-2.084;2022-12-18T11:21:40;101922.81;;;5.41;100.00
64192;BME280;50497;50.720;-2.084;2022-12-18T11:24:19;101915.69;;;5.46;100.00
64192;BME280;50497;50.720;-2.084;2022-12-18T11:26:45;101901.56;;;5.41;100.00
64192;BME280;50497;50.720;-2.084;2022-12-18T11:29:17;101898.84;;;5.54;100.00
64192;BME280;50497;50.720;-2.084;2022-12-18T11:31:43;101892.72;;;5.45;100.00
64192;BME280;50497;50.720;-2.084;2022-12-18T11:34:16;101912.09;;;5.54;100.00
64192;BME280;50497;50.720;-2.084;2022-12-18T11:36:46;101914.66;;;5.65;100.00
64192;BME280;50497;50.720;-2.084;2022-12-18T11:39:17;101904.97;;;5.61;100.00
64192;BME280;50497;50.720;-2.084;2022-12-18T11:41:55;101907.53;;;5.72;100.00
64192;BME280;50497;50.720;-2.084;2022-12-18T11:44:43;101900.38;;;5.79;100.00
64192;BME280;50497;50.720;-2.084;2022-12-18T11:47:34;101892.44;;;5.76;100.00
64192;BME280;50497;50.720;-2.084;2022-12-18T11:50:13;101890.59;;;5.85;100.00
64192;BME280;50497;50.720;-2.084;2022-12-18T11:52:40;101890.59;;;5.82;100.00
64192;BME280;50497;50.720;-2.084;2022-12-18T12:00:23;101880.63;;;6.09;100.00
64192;BME280;50497;50.720;-2.084;2022-12-18T12:02:57;101885.91;;;6.14;100.00
64192;BME280;50497;50.720;-2.084;2022-12-18T12:05:44;101870.88;;;6.13;100.00
64192;BME280;50497;50.720;-2.084;2022-12-18T12:08:57;101882.28;;;6.21;100.00
64192;BME280;50497;50.720;-2.084;2022-12-18T12:17:03;101859.38;;;6.10;100.00
64192;BME280;50497;50.720;-2.084;2022-12-18T12:19:46;101868.97;;;6.22;100.00
64192;BME280;50497;50.720;-2.084;2022-12-18T12:22:27;101869.59;;;6.46;100.00
64192;BME280;50497;50.720;-2.084;2022-12-18T12:25:12;101865.22;;;6.40;100.00
64192;BME280;50497;50.720;-2.084;2022-12-18T12:33:26;101858.84;;;6.54;100.00
64192;BME280;50497;50.720;-2.084;2022-12-18T12:38:43;101835.91;;;6.46;100.00
64192;BME280;50497;50.720;-2.084;2022-12-18T12:41:13;101827.84;;;6.54;100.00
64192;BME280;50497;50.720;-2.084;2022-12-18T12:44:01;101823.41;;;6.55;100.00
64192;BME280;50497;50.720;-2.084;2022-12-18T12:46:30;101829.47;;;6.66;100.00
64192;BME280;50497;50.720;-2.084;2022-12-18T12:48:58;101832.19;;;6.60;100.00
64192;BME280;50497;50.720;-2.084;2022-12-18T12:51:30;101825.03;;;6.65;100.00
64192;BME280;50497;50.720;-2.084;2022-12-18T12:54:02;101818.81;;;6.68;100.00
64192;BME280;50497;50.720;-2.084;2022-12-18T12:56:42;101822.25;;;6.74;100.00
64192;BME280;50497;50.720;-2.084;2022-12-18T13:05:19;101811.44;;;6.87;100.00
64192;BME280;50497;50.720;-2.084;2022-12-18T13:08:09;101805.13;;;6.92;100.00
64192;BME280;50497;50.720;-2.084;2022-12-18T13:10:38;101797.06;;;6.98;100.00
64192;BME280;50497;50.720;-2.084;2022-12-18T13:13:13;101797.22;;;6.89;100.00
64192;BME280;50497;50.720;-2.084;2022-12-18T13:15:48;101806.75;;;7.04;100.00
64192;BME280;50497;50.720;-2.084;2022-12-18T13:18:23;101812.00;;;7.07;100.00
64192;BME280;50497;50.720;-2.084;2022-12-18T13:25:50;101792.38;;;7.14;100.00
64192;BME280;50497;50.720;-2.084;2022-12-18T13:28:20;101770.34;;;7.06;100.00
64192;BME280;50497;50.720;-2.084;2022-12-18T13:30:52;101773.72;;;7.16;100.00
64192;BME280;50497;50.720;-2.084;2022-12-18T13:38:34;101777.91;;;7.31;100.00
64192;BME280;50497;50.720;-2.084;2022-12-18T13:43:46;101750.34;;;7.33;100.00
64192;BME280;50497;50.720;-2.084;2022-12-18T13:46:29;101750.34;;;7.33;100.00
64192;BME280;50497;50.720;-2.084;2022-12-18T13:48:59;101752.16;;;7.31;100.00
64192;BME280;50497;50.720;-2.084;2022-12-18T13:51:26;101745.97;;;7.31;100.00
64192;BME280;50497;50.720;-2.084;2022-12-18T13:53:55;101745.16;;;7.27;100.00
64192;BME280;50497;50.720;-2.084;2022-12-18T13:56:28;101718.56;;;7.26;100.00
64192;BME280;50497;50.720;-2.084;2022-12-18T13:59:32;101726.28;;;7.39;100.00
64192;BME280;50497;50.720;-2.084;2022-12-18T14:02:00;101727.19;;;7.38;100.00
64192;BME280;50497;50.720;-2.084;2022-12-18T14:04:28;101723.66;;;7.38;100.00
64192;BME280;50497;50.720;-2.084;2022-12-18T14:07:03;101704.19;;;7.34;100.00
64192;BME280;50497;50.720;-2.084;2022-12-18T14:09:53;101718.28;;;7.41;100.00
64192;BME280;50497;50.720;-2.084;2022-12-18T14:12:26;101704.91;;;7.44;100.00
64192;BME280;50497;50.720;-2.084;2022-12-18T14:15:27;101693.53;;;7.36;100.00
64192;BME280;50497;50.720;-2.084;2022-12-18T14:20:23;101681.84;;;7.43;100.00
64192;BME280;50497;50.720;-2.084;2022-12-18T14:22:49;101704.84;;;7.47;100.00
64192;BME280;50497;50.720;-2.084;2022-12-18T14:25:20;101702.06;;;7.52;100.00
64192;BME280;50497;50.720;-2.084;2022-12-18T14:30:43;101693.22;;;7.51;100.00
64192;BME280;50497;50.720;-2.084;2022-12-18T14:33:09;101690.47;;;7.56;100.00